Time;durP1;ratioP1;P1;durP2;ratioP2;P2;SDS_P1;SDS_P2;PMS_P1;PMS_P2;Temp;Humidity;BMP_temperature;BMP_pressure;BME280_temperature;BME280_humidity;BME280_pressure;Samples;Min_cycle;Max_cycle;Signal;HPM_P1;HPM_P2
2021/10/19 00:00:45;;;;;;;6.13;5.13;;;;;16.60;98942.00;;;;4994687;28;20240;-61
2021/10/19 00:03:11;;;;;;;5.63;5.13;;;;;16.60;98937.00;;;;4993371;28;20195;-61
2021/10/19 00:05:38;;;;;;;6.07;5.47;;;;;16.60;98931.00;;;;4994891;28;20188;-61
2021/10/19 00:08:04;;;;;;;5.63;5.13;;;;;16.60;98932.00;;;;4994468;28;20215;-61
2021/10/19 00:10:31;;;;;;;5.73;5.13;;;;;16.60;98944.00;;;;4994592;28;20252;-61
2021/10/19 00:12:57;;;;;;;5.50;5.00;;;;;16.60;98938.00;;;;4994728;28;20183;-61
2021/10/19 00:15:24;;;;;;;5.57;5.07;;;;;16.60;98938.00;;;;4994456;28;20261;-61
2021/10/19 00:17:50;;;;;;;5.87;5.37;;;;;16.60;98928.00;;;;4993338;28;20210;-62
2021/10/19 00:20:17;;;;;;;6.20;5.70;;;;;16.60;98922.00;;;;4994353;28;20194;-61
2021/10/19 00:22:44;;;;;;;5.33;4.90;;;;;16.60;98925.00;;;;4994566;28;20665;-61
2021/10/19 00:25:15;;;;;;;5.63;5.07;;;;;16.60;98931.00;;;;4994237;28;20187;-61
2021/10/19 00:27:42;;;;;;;5.60;5.10;;;;;16.60;98924.00;;;;4994315;28;20213;-61
2021/10/19 00:30:10;;;;;;;5.57;5.07;;;;;16.60;98935.00;;;;4994036;28;20206;-61
2021/10/19 00:32:38;;;;;;;5.70;5.20;;;;;16.60;98932.00;;;;4994411;28;20185;-61
2021/10/19 00:35:06;;;;;;;5.47;4.97;;;;;16.60;98937.00;;;;4994033;28;20205;-61
2021/10/19 00:37:33;;;;;;;6.23;5.40;;;;;16.60;98934.00;;;;4993983;28;20643;-61
2021/10/19 00:40:00;;;;;;;5.67;5.17;;;;;16.50;98935.00;;;;4992309;28;20198;-61
2021/10/19 00:42:26;;;;;;;5.73;5.23;;;;;16.50;98925.00;;;;4993957;28;20242;-61
2021/10/19 00:44:53;;;;;;;6.47;5.17;;;;;16.50;98933.00;;;;4994191;28;20253;-61
2021/10/19 00:47:20;;;;;;;5.40;4.90;;;;;16.50;98925.00;;;;4994050;28;20266;-61
2021/10/19 00:49:49;;;;;;;5.87;5.37;;;;;16.50;98921.00;;;;4992485;28;20264;-61
2021/10/19 00:52:17;;;;;;;5.33;4.83;;;;;16.50;98920.00;;;;4993695;28;20211;-61
2021/10/19 00:54:44;;;;;;;5.57;5.07;;;;;16.50;98918.00;;;;4994138;28;20190;-62
2021/10/19 00:57:11;;;;;;;5.30;4.90;;;;;16.50;98909.00;;;;4993725;28;20209;-61
2021/10/19 00:59:46;;;;;;;5.33;4.83;;;;;16.50;98921.00;;;;4993708;28;20198;-61
2021/10/19 01:02:14;;;;;;;5.80;5.30;;;;;16.50;98913.00;;;;4994182;28;20173;-61
2021/10/19 01:04:42;;;;;;;5.73;5.23;;;;;16.50;98909.00;;;;4992317;28;20195;-61
2021/10/19 01:07:09;;;;;;;5.47;4.97;;;;;16.50;98913.00;;;;4992240;28;20214;-61
2021/10/19 01:09:37;;;;;;;5.47;5.00;;;;;16.50;98915.00;;;;4993510;28;20202;-61
2021/10/19 01:12:05;;;;;;;5.13;4.63;;;;;16.50;98915.00;;;;4993920;28;20686;-61
2021/10/19 01:14:32;;;;;;;5.53;5.10;;;;;16.50;98906.00;;;;4993502;28;20244;-61
2021/10/19 01:16:59;;;;;;;5.63;5.13;;;;;16.50;98916.00;;;;4993364;28;20211;-61
2021/10/19 01:19:26;;;;;;;5.57;5.17;;;;;16.50;98917.00;;;;4992249;28;20207;-61
2021/10/19 01:21:57;;;;;;;5.37;4.90;;;;;16.50;98920.00;;;;4993416;28;20244;-61
2021/10/19 01:24:24;;;;;;;5.83;5.30;;;;;16.50;98920.00;;;;4993625;28;20598;-62
2021/10/19 01:26:51;;;;;;;5.07;4.67;;;;;16.40;98922.00;;;;4993346;28;20218;-61
2021/10/19 01:29:18;;;;;;;5.90;5.40;;;;;16.50;98915.00;;;;4993282;28;20687;-61
2021/10/19 01:31:49;;;;;;;5.07;4.60;;;;;16.40;98912.00;;;;4993577;28;20268;-61
2021/10/19 01:34:16;;;;;;;5.13;4.73;;;;;16.40;98910.00;;;;4993532;28;20182;-61
2021/10/19 01:36:44;;;;;;;5.50;5.00;;;;;16.40;98903.00;;;;4993473;28;20700;-61
2021/10/19 01:39:11;;;;;;;5.03;4.63;;;;;16.40;98892.00;;;;4993344;28;20188;-63
2021/10/19 01:41:39;;;;;;;5.00;4.60;;;;;16.40;98887.00;;;;4993796;28;20219;-62
2021/10/19 01:44:05;;;;;;;5.03;4.63;;;;;16.40;98895.00;;;;4993205;28;20207;-62
2021/10/19 01:46:32;;;;;;;5.60;5.10;;;;;16.40;98891.00;;;;4993375;28;20213;-62
2021/10/19 01:48:59;;;;;;;6.00;5.10;;;;;16.40;98897.00;;;;4993198;28;20191;-62
2021/10/19 01:51:26;;;;;;;4.90;4.50;;;;;16.40;98890.00;;;;4995236;28;20695;-62
2021/10/19 01:53:53;;;;;;;5.20;4.70;;;;;16.40;98875.00;;;;4995891;28;20190;-62
2021/10/19 01:56:20;;;;;;;5.07;4.67;;;;;16.40;98877.00;;;;4995940;28;20234;-62
2021/10/19 01:58:46;;;;;;;5.07;4.67;;;;;16.40;98876.00;;;;4997032;28;20195;-62
2021/10/19 02:01:13;;;;;;;4.80;4.40;;;;;16.40;98880.00;;;;4996972;28;20185;-62
2021/10/19 02:03:39;;;;;;;4.77;4.37;;;;;16.40;98877.00;;;;4997212;28;20191;-61
2021/10/19 02:06:06;;;;;;;5.00;4.60;;;;;16.40;98878.00;;;;4995589;28;20222;-60
2021/10/19 02:08:34;;;;;;;4.93;4.47;;;;;16.30;98879.00;;;;4997023;28;20664;-62
2021/10/19 02:11:00;;;;;;;4.77;4.37;;;;;16.30;98872.00;;;;4995610;28;20216;-60
2021/10/19 02:13:27;;;;;;;5.00;4.40;;;;;16.30;98865.00;;;;4997211;28;20195;-60
2021/10/19 02:15:54;;;;;;;5.10;4.70;;;;;16.30;98864.00;;;;4996559;28;20198;-61
2021/10/19 02:18:20;;;;;;;5.20;4.80;;;;;16.30;98868.00;;;;4996674;28;20673;-61
2021/10/19 02:20:47;;;;;;;5.30;4.90;;;;;16.30;98863.00;;;;4996590;28;20187;-60
2021/10/19 02:23:14;;;;;;;4.63;4.23;;;;;16.30;98864.00;;;;4996509;28;20241;-60
2021/10/19 02:25:40;;;;;;;4.77;4.37;;;;;16.30;98866.00;;;;4995275;28;20191;-60
2021/10/19 02:28:07;;;;;;;5.20;4.77;;;;;16.30;98858.00;;;;4996388;28;20218;-60
2021/10/19 02:30:34;;;;;;;4.80;4.40;;;;;16.30;98854.00;;;;4996247;28;20202;-61
2021/10/19 02:33:01;;;;;;;4.93;4.53;;;;;16.30;98864.00;;;;4996365;28;20196;-61
2021/10/19 02:35:27;;;;;;;4.90;4.50;;;;;16.30;98849.00;;;;4996290;28;20564;-61
2021/10/19 02:37:54;;;;;;;4.57;4.27;;;;;16.30;98848.00;;;;4995108;28;20214;-61
2021/10/19 02:40:21;;;;;;;4.70;4.30;;;;;16.30;98852.00;;;;4996242;28;20724;-61
2021/10/19 02:42:47;;;;;;;4.60;4.30;;;;;16.30;98841.00;;;;4996226;28;20187;-61
2021/10/19 02:45:14;;;;;;;4.73;4.33;;;;;16.30;98835.00;;;;4996131;28;20199;-61
2021/10/19 02:47:41;;;;;;;5.10;4.70;;;;;16.30;98849.00;;;;4996072;28;20213;-61
2021/10/19 02:50:10;;;;;;;4.70;4.30;;;;;16.30;98846.00;;;;4978820;28;20214;-61
2021/10/19 02:52:37;;;;;;;4.60;4.30;;;;;16.30;98848.00;;;;4996501;28;20214;-61
2021/10/19 02:55:06;;;;;;;4.70;4.30;;;;;16.30;98852.00;;;;4996042;28;20261;-61
2021/10/19 02:57:32;;;;;;;4.10;3.80;;;;;16.30;98851.00;;;;4996068;28;20262;-61
2021/10/19 02:59:59;;;;;;;4.53;4.17;;;;;16.20;98846.00;;;;4994628;28;20202;-61
2021/10/19 03:02:25;;;;;;;4.93;4.53;;;;;16.20;98846.00;;;;4994179;28;20198;-61
2021/10/19 03:04:52;;;;;;;5.23;4.60;;;;;16.20;98846.00;;;;4995825;28;20197;-61
2021/10/19 03:07:19;;;;;;;4.70;4.30;;;;;16.20;98851.00;;;;4995795;28;20215;-61
2021/10/19 03:09:45;;;;;;;4.60;4.30;;;;;16.20;98850.00;;;;4995804;28;20202;-61
2021/10/19 03:12:12;;;;;;;4.90;4.50;;;;;16.20;98855.00;;;;4996144;28;20276;-61
2021/10/19 03:14:38;;;;;;;4.60;4.30;;;;;16.20;98857.00;;;;4995641;28;20195;-61
2021/10/19 03:17:05;;;;;;;4.90;4.50;;;;;16.20;98845.00;;;;4996067;28;20337;-61
2021/10/19 03:19:31;;;;;;;4.80;4.43;;;;;16.20;98854.00;;;;4994367;28;20681;-61
2021/10/19 03:21:57;;;;;;;4.67;4.37;;;;;16.20;98869.00;;;;4996083;28;20246;-61
2021/10/19 03:24:24;;;;;;;4.50;4.20;;;;;16.20;98875.00;;;;4995522;28;20191;-61
2021/10/19 03:26:51;;;;;;;4.63;4.33;;;;;16.20;98874.00;;;;4995746;28;20261;-61
2021/10/19 03:29:18;;;;;;;4.67;4.30;;;;;16.20;98867.00;;;;4995502;28;20677;-61
2021/10/19 03:31:45;;;;;;;4.73;4.33;;;;;16.20;98880.00;;;;4995863;28;20215;-61
2021/10/19 03:34:11;;;;;;;5.00;4.60;;;;;16.20;98874.00;;;;4995373;28;20218;-62
2021/10/19 03:36:38;;;;;;;4.43;4.13;;;;;16.20;98869.00;;;;4995271;28;20218;-61
2021/10/19 03:39:04;;;;;;;4.13;3.83;;;;;16.20;98874.00;;;;4995336;28;20301;-62
2021/10/19 03:41:31;;;;;;;4.77;4.37;;;;;16.20;98874.00;;;;4994212;28;20714;-62
2021/10/19 03:43:58;;;;;;;4.30;4.00;;;;;16.20;98873.00;;;;4995265;28;20201;-61
2021/10/19 03:46:24;;;;;;;4.80;4.43;;;;;16.20;98863.00;;;;4995312;28;20217;-61
2021/10/19 03:48:51;;;;;;;4.53;4.20;;;;;16.20;98877.00;;;;4995101;28;20281;-61
2021/10/19 03:51:17;;;;;;;4.50;4.20;;;;;16.20;98872.00;;;;4994962;28;20209;-61
2021/10/19 03:53:44;;;;;;;4.67;4.30;;;;;16.20;98872.00;;;;4995279;28;20198;-61
2021/10/19 03:56:10;;;;;;;4.53;4.23;;;;;16.20;98877.00;;;;4994869;28;20195;-62
2021/10/19 03:58:37;;;;;;;4.80;4.43;;;;;16.20;98871.00;;;;4994931;28;20609;-61
2021/10/19 04:01:03;;;;;;;4.53;4.23;;;;;16.20;98879.00;;;;4994883;28;20680;-61
2021/10/19 04:03:30;;;;;;;4.20;3.90;;;;;16.20;98889.00;;;;4993623;28;20625;-61
2021/10/19 04:05:57;;;;;;;4.17;3.83;;;;;16.10;98883.00;;;;4994781;28;20202;-62
2021/10/19 04:08:23;;;;;;;4.73;4.33;;;;;16.10;98876.00;;;;4994169;28;20195;-61
2021/10/19 04:10:50;;;;;;;4.60;4.20;;;;;16.10;98873.00;;;;4994698;28;20202;-61
2021/10/19 04:13:16;;;;;;;4.17;3.77;;;;;16.10;98875.00;;;;4993836;28;20263;-61
2021/10/19 04:15:43;;;;;;;4.40;4.10;;;;;16.10;98865.00;;;;4994889;28;20190;-61
2021/10/19 04:18:09;;;;;;;4.50;4.10;;;;;16.10;98868.00;;;;4994557;28;20685;-61
2021/10/19 04:20:36;;;;;;;4.20;3.90;;;;;16.10;98868.00;;;;4994792;28;20267;-61
2021/10/19 04:23:03;;;;;;;4.33;4.03;;;;;16.10;98872.00;;;;4994968;28;20180;-61
2021/10/19 04:25:29;;;;;;;4.30;4.00;;;;;16.10;98880.00;;;;4994398;28;20241;-61
2021/10/19 04:27:56;;;;;;;4.73;4.23;;;;;16.10;98883.00;;;;4994630;28;20217;-61
2021/10/19 04:30:23;;;;;;;4.33;4.00;;;;;16.10;98878.00;;;;4994362;28;20195;-61
2021/10/19 04:32:49;;;;;;;4.43;4.10;;;;;16.10;98874.00;;;;4994502;28;20680;-61
2021/10/19 04:35:16;;;;;;;4.47;4.07;;;;;16.10;98874.00;;;;4993056;28;20278;-61
2021/10/19 04:37:42;;;;;;;4.80;4.40;;;;;16.10;98868.00;;;;4994672;28;20713;-61
2021/10/19 04:40:10;;;;;;;4.57;4.17;;;;;16.10;98863.00;;;;4994480;28;20197;-61
2021/10/19 04:42:37;;;;;;;4.30;4.00;;;;;16.10;98875.00;;;;4994479;28;20241;-61
2021/10/19 04:45:05;;;;;;;4.30;4.00;;;;;16.10;98863.00;;;;4993014;28;20220;-61
2021/10/19 04:47:32;;;;;;;4.00;3.70;;;;;16.10;98861.00;;;;4994157;28;20713;-61
2021/10/19 04:49:59;;;;;;;4.30;4.00;;;;;16.10;98858.00;;;;4993018;28;20206;-61
2021/10/19 04:52:26;;;;;;;4.40;4.00;;;;;16.10;98870.00;;;;4994045;28;20680;-61
2021/10/19 04:54:53;;;;;;;3.70;3.50;;;;;16.10;98864.00;;;;4994407;28;20191;-61
2021/10/19 04:57:19;;;;;;;4.60;4.30;;;;;16.10;98855.00;;;;4993921;28;20260;-61
2021/10/19 04:59:46;;;;;;;4.00;3.70;;;;;16.10;98857.00;;;;4992812;28;20191;-62
2021/10/19 05:02:12;;;;;;;4.67;3.93;;;;;16.10;98859.00;;;;4992638;28;20189;-61
2021/10/19 05:04:40;;;;;;;4.33;4.03;;;;;16.10;98854.00;;;;4992776;28;20210;-61
2021/10/19 05:07:07;;;;;;;3.73;3.43;;;;;16.10;98860.00;;;;4993938;28;20326;-60
2021/10/19 05:09:33;;;;;;;4.07;3.77;;;;;16.10;98853.00;;;;4993810;28;20199;-61
2021/10/19 05:12:00;;;;;;;4.27;3.97;;;;;16.10;98868.00;;;;4993665;28;20208;-60
2021/10/19 05:14:26;;;;;;;3.90;3.60;;;;;16.10;98870.00;;;;4993801;28;20243;-61
2021/10/19 05:16:53;;;;;;;3.60;3.40;;;;;16.10;98872.00;;;;4993713;28;20213;-60
2021/10/19 05:19:19;;;;;;;3.87;3.57;;;;;16.20;98862.00;;;;4993865;28;20191;-60
2021/10/19 05:21:46;;;;;;;4.10;3.80;;;;;16.20;98860.00;;;;4993952;28;20257;-61
2021/10/19 05:24:12;;;;;;;3.90;3.60;;;;;16.20;98852.00;;;;4993518;28;20197;-62
2021/10/19 05:26:39;;;;;;;4.00;3.70;;;;;16.20;98863.00;;;;4993869;28;20685;-61
2021/10/19 05:29:05;;;;;;;3.93;3.63;;;;;16.20;98861.00;;;;4993409;28;20675;-61
2021/10/19 05:31:32;;;;;;;3.87;3.57;;;;;16.20;98853.00;;;;4992246;28;20201;-61
2021/10/19 05:33:58;;;;;;;4.40;4.10;;;;;16.20;98856.00;;;;4992387;28;20276;-61
2021/10/19 05:36:25;;;;;;;3.90;3.60;;;;;16.30;98857.00;;;;4993917;28;20259;-60
2021/10/19 05:38:51;;;;;;;4.20;3.90;;;;;16.30;98849.00;;;;4993716;28;20200;-60
2021/10/19 05:41:18;;;;;;;3.90;3.60;;;;;16.30;98845.00;;;;4993482;28;20797;-60
2021/10/19 05:43:45;;;;;;;3.93;3.63;;;;;16.40;98866.00;;;;4993689;28;20191;-60
2021/10/19 05:46:13;;;;;;;3.60;3.40;;;;;16.40;98850.00;;;;4993430;28;20241;-61
2021/10/19 05:48:40;;;;;;;3.50;3.30;;;;;16.40;98844.00;;;;4992244;28;20192;-61
2021/10/19 05:51:06;;;;;;;4.00;3.70;;;;;16.40;98835.00;;;;4992215;28;20352;-61
2021/10/19 05:53:33;;;;;;;3.83;3.60;;;;;16.40;98837.00;;;;4992045;28;20268;-61
2021/10/19 05:55:59;;;;;;;4.00;3.70;;;;;16.50;98833.00;;;;4993251;28;20622;-60
2021/10/19 05:58:26;;;;;;;3.97;3.67;;;;;16.50;98829.00;;;;4993593;28;20261;-61
2021/10/19 06:00:52;;;;;;;4.00;3.70;;;;;16.50;98829.00;;;;4993593;28;20555;-60
2021/10/19 06:03:19;;;;;;;3.70;3.40;;;;;16.50;98829.00;;;;4993190;28;20651;-60
2021/10/19 06:05:46;;;;;;;3.80;3.50;;;;;16.50;98826.00;;;;4993233;28;20668;-61
2021/10/19 06:08:13;;;;;;;3.60;3.33;;;;;16.50;98845.00;;;;4993663;28;20221;-61
2021/10/19 06:10:40;;;;;;;3.77;3.47;;;;;16.60;98844.00;;;;4993189;28;20202;-61
2021/10/19 06:13:06;;;;;;;3.60;3.30;;;;;16.60;98855.00;;;;4993639;28;20266;-61
2021/10/19 06:15:33;;;;;;;3.67;3.47;;;;;16.60;98846.00;;;;4993665;28;20189;-61
2021/10/19 06:18:00;;;;;;;3.67;3.37;;;;;16.60;98837.00;;;;4993144;28;20296;-61
2021/10/19 06:20:27;;;;;;;3.80;3.50;;;;;16.60;98828.00;;;;4991850;28;20199;-61
2021/10/19 06:22:53;;;;;;;3.93;3.63;;;;;16.60;98827.00;;;;4993069;28;20539;-61
2021/10/19 06:25:20;;;;;;;4.10;3.80;;;;;16.60;98820.00;;;;4993153;28;20193;-61
2021/10/19 06:27:46;;;;;;;3.90;3.60;;;;;16.60;98823.00;;;;4992939;28;20211;-61
2021/10/19 06:30:13;;;;;;;3.93;3.63;;;;;16.60;98820.00;;;;4992958;28;20235;-61
2021/10/19 06:32:40;;;;;;;4.17;3.80;;;;;16.60;98834.00;;;;4989203;28;20293;-63
2021/10/19 06:35:09;;;;;;;3.70;3.50;;;;;16.60;98832.00;;;;4980594;28;20686;-61
2021/10/19 06:37:37;;;;;;;3.80;3.53;;;;;16.60;98834.00;;;;4995229;28;20222;-60
2021/10/19 06:40:07;;;;;;;3.80;3.50;;;;;16.70;98830.00;;;;4996631;28;20192;-61
2021/10/19 06:42:34;;;;;;;3.73;3.53;;;;;16.70;98827.00;;;;4996524;28;20186;-60
2021/10/19 06:45:01;;;;;;;3.50;3.30;;;;;16.70;98832.00;;;;4996643;28;20198;-61
2021/10/19 06:47:32;;;;;;;3.70;3.40;;;;;16.70;98829.00;;;;4996454;28;20289;-62
2021/10/19 06:49:59;;;;;;;3.63;3.33;;;;;16.70;98833.00;;;;4996344;28;20191;-63
2021/10/19 06:52:25;;;;;;;3.93;3.63;;;;;16.70;98835.00;;;;4996493;28;20229;-62
2021/10/19 06:54:52;;;;;;;4.10;3.80;;;;;16.70;98837.00;;;;4996268;28;20194;-62
2021/10/19 06:57:18;;;;;;;3.67;3.47;;;;;16.80;98831.00;;;;4996126;28;20218;-61
2021/10/19 06:59:45;;;;;;;5.37;3.60;;;;;16.80;98826.00;;;;4995819;28;20248;-60
2021/10/19 07:02:11;;;;;;;4.30;3.90;;;;;16.90;98824.00;;;;4997153;28;20187;-60
2021/10/19 07:04:38;;;;;;;3.87;3.57;;;;;16.90;98819.00;;;;4997475;28;20198;-58
2021/10/19 07:07:05;;;;;;;3.90;3.60;;;;;16.90;98813.00;;;;4995109;28;20230;-60
2021/10/19 07:09:31;;;;;;;3.70;3.40;;;;;17.00;98811.00;;;;4996004;28;20199;-60
2021/10/19 07:12:01;;;;;;;3.50;3.30;;;;;17.00;98808.00;;;;4995895;28;20245;-60
2021/10/19 07:14:27;;;;;;;3.57;3.37;;;;;17.00;98805.00;;;;4995819;28;20256;-61
2021/10/19 07:16:54;;;;;;;3.80;3.50;;;;;17.00;98803.00;;;;4995783;28;20214;-60
2021/10/19 07:19:22;;;;;;;3.90;3.70;;;;;17.00;98804.00;;;;4994404;28;20232;-60
2021/10/19 07:21:49;;;;;;;3.60;3.30;;;;;16.90;98801.00;;;;4996013;28;20195;-61
2021/10/19 07:24:16;;;;;;;3.57;3.27;;;;;16.90;98797.00;;;;4995669;28;20721;-61
2021/10/19 07:26:42;;;;;;;3.53;3.23;;;;;16.80;98799.00;;;;4995665;28;20217;-58
2021/10/19 07:29:10;;;;;;;3.60;3.30;;;;;16.80;98798.00;;;;4990273;28;20211;-63
2021/10/19 07:31:36;;;;;;;3.90;3.60;;;;;16.90;98811.00;;;;4994692;28;20265;-61
2021/10/19 07:34:03;;;;;;;4.00;3.70;;;;;17.00;98801.00;;;;4995473;28;20208;-61
2021/10/19 07:36:31;;;;;;;3.60;3.30;;;;;17.00;98802.00;;;;4995418;28;20249;-61
2021/10/19 07:38:58;;;;;;;4.07;3.77;;;;;17.00;98807.00;;;;4995413;28;20213;-60
2021/10/19 07:41:24;;;;;;;4.00;3.70;;;;;17.10;98813.00;;;;4995409;28;20285;-62
2021/10/19 07:43:51;;;;;;;3.57;3.27;;;;;17.00;98814.00;;;;4996119;28;20195;-60
2021/10/19 07:46:17;;;;;;;3.23;3.03;;;;;17.10;98821.00;;;;4996659;28;20218;-61
2021/10/19 07:48:44;;;;;;;3.47;3.27;;;;;17.10;98816.00;;;;4995343;28;20228;-61
2021/10/19 07:51:12;;;;;;;3.63;3.43;;;;;17.10;98809.00;;;;4995160;28;20202;-60
2021/10/19 07:53:39;;;;;;;3.90;3.23;;;;;17.10;98808.00;;;;4995581;28;20210;-61
2021/10/19 07:56:05;;;;;;;3.77;3.47;;;;;17.10;98811.00;;;;4994954;28;20198;-61
2021/10/19 07:58:32;;;;;;;3.87;3.47;;;;;17.20;98807.00;;;;4995546;28;20191;-60
2021/10/19 08:00:58;;;;;;;4.43;3.50;;;;;17.20;98812.00;;;;4995504;28;20647;-60
2021/10/19 08:03:25;;;;;;;6.20;3.73;;;;;17.30;98813.00;;;;4994904;28;20215;-62
2021/10/19 08:05:52;;;;;;;4.63;3.53;;;;;17.30;98825.00;;;;4994731;28;20195;-61
2021/10/19 08:08:18;;;;;;;5.63;3.80;;;;;17.30;98823.00;;;;4993605;28;20253;-59
2021/10/19 08:10:46;;;;;;;3.97;3.63;;;;;17.30;98813.00;;;;4994762;28;20191;-62
2021/10/19 08:13:14;;;;;;;3.90;3.60;;;;;17.30;98810.00;;;;4994604;28;20214;-61
2021/10/19 08:15:41;;;;;;;3.80;3.50;;;;;17.30;98811.00;;;;4994864;28;20191;-62
2021/10/19 08:18:09;;;;;;;8.97;4.00;;;;;17.30;98811.00;;;;4994654;28;20625;-62
2021/10/19 08:20:36;;;;;;;5.53;4.00;;;;;17.40;98805.00;;;;4994786;28;20235;-61
2021/10/19 08:23:04;;;;;;;3.70;3.40;;;;;17.40;98813.00;;;;4994614;28;20558;-61
2021/10/19 08:25:31;;;;;;;4.17;3.60;;;;;17.50;98813.00;;;;4994604;28;20199;-61
2021/10/19 08:27:58;;;;;;;3.90;3.60;;;;;17.50;98812.00;;;;4994424;28;20215;-61
2021/10/19 08:30:25;;;;;;;3.90;3.60;;;;;17.50;98817.00;;;;4994254;28;20203;-61
2021/10/19 08:32:52;;;;;;;4.60;3.53;;;;;17.50;98816.00;;;;4994234;28;20252;-62
2021/10/19 08:35:22;;;;;;;3.67;3.37;;;;;17.50;98816.00;;;;4994412;28;20221;-62
2021/10/19 08:37:50;;;;;;;3.67;3.37;;;;;17.50;98816.00;;;;4993005;28;20228;-61
2021/10/19 08:40:17;;;;;;;3.43;3.20;;;;;17.50;98818.00;;;;4994309;28;20240;-62
2021/10/19 08:42:44;;;;;;;4.60;3.23;;;;;17.50;98822.00;;;;4994168;28;20194;-62
2021/10/19 08:45:16;;;;;;;3.70;3.17;;;;;17.50;98818.00;;;;4992831;28;20234;-62
2021/10/19 08:47:45;;;;;;;3.87;3.03;;;;;17.50;98820.00;;;;4992389;28;20207;-63
2021/10/19 08:50:13;;;;;;;3.77;3.47;;;;;17.50;98816.00;;;;4985387;28;20245;-61
2021/10/19 08:52:41;;;;;;;3.50;3.30;;;;;17.50;98811.00;;;;4994012;28;20262;-61
2021/10/19 08:55:08;;;;;;;3.30;3.10;;;;;17.50;98815.00;;;;4992765;28;20593;-61
2021/10/19 08:57:35;;;;;;;3.30;3.03;;;;;17.50;98810.00;;;;4993885;28;20207;-62
2021/10/19 09:00:02;;;;;;;3.67;3.37;;;;;17.50;98810.00;;;;4993419;28;20254;-61
2021/10/19 09:02:39;;;;;;;3.47;3.20;;;;;17.50;98808.00;;;;4993966;28;20195;-62
2021/10/19 09:05:14;;;;;;;3.80;3.50;;;;;17.50;98810.00;;;;4992546;28;20222;-61
2021/10/19 09:07:57;;;;;;;3.93;3.60;;;;;17.50;98811.00;;;;4993895;28;20582;-62
2021/10/19 09:10:25;;;;;;;3.30;3.10;;;;;17.50;98807.00;;;;4996920;28;20186;-62
2021/10/19 09:13:01;;;;;;;4.10;3.37;;;;;17.50;98817.00;;;;4994609;28;20214;-61
2021/10/19 09:15:33;;;;;;;3.50;3.20;;;;;17.50;98804.00;;;;4994031;28;20194;-61
2021/10/19 09:18:02;;;;;;;3.53;3.23;;;;;17.40;98816.00;;;;4992862;28;20617;-61
2021/10/19 09:20:33;;;;;;;3.43;3.23;;;;;17.40;98809.00;;;;4994909;28;20662;-61
2021/10/19 09:23:01;;;;;;;3.60;3.40;;;;;17.40;98812.00;;;;4993426;28;20186;-62
2021/10/19 09:25:33;;;;;;;3.57;3.27;;;;;17.40;98815.00;;;;4993707;28;20196;-61
2021/10/19 09:28:02;;;;;;;3.60;3.30;;;;;17.50;98810.00;;;;4992660;28;20270;-61
2021/10/19 09:30:34;;;;;;;3.63;3.30;;;;;17.50;98811.00;;;;5021896;28;20206;-58
2021/10/19 09:33:01;;;;;;;3.40;3.20;;;;;17.50;98812.00;;;;5007288;28;20211;-56
2021/10/19 09:35:28;;;;;;;3.90;3.60;;;;;17.60;98820.00;;;;4992994;28;20203;-62
2021/10/19 09:38:06;;;;;;;4.07;3.73;;;;;17.60;98817.00;;;;4993370;28;20269;-60
2021/10/19 09:40:44;;;;;;;4.87;4.47;;;;;17.60;98815.00;;;;4992329;28;20186;-60
2021/10/19 09:43:15;;;;;;;3.97;3.67;;;;;17.70;98819.00;;;;4991560;28;20213;-63
2021/10/19 10:09:13;;;;;;;3.77;3.47;;;;;;;;;;7368500;19;21265;-74
2021/10/19 10:11:41;;;;;;;3.93;3.63;;;;;;;;;;6551462;19;9999603;-75
2021/10/19 10:17:10;;;;;;;3.70;3.40;;;;;16.90;98798.00;;;;7350999;19;20588;-56
2021/10/19 10:19:36;;;;;;;4.53;3.70;;;;;17.30;98810.00;;;;7331783;19;20110;-59
2021/10/19 10:22:13;;;;;;;4.13;3.83;;;;;17.50;98799.00;;;;7404796;19;74363;-56
2021/10/19 11:18:15;;;;;;;3.67;3.43;;;;;;;;;;5063129;28;20628;-75
2021/10/19 11:23:50;;;;;;;3.70;3.40;;;;;16.40;98738.00;;;;5052621;27;109232;-73
2021/10/19 11:26:16;;;;;;;3.30;3.10;;;;;16.40;98739.00;;;;5060531;28;20232;-73
2021/10/19 11:28:44;;;;;;;3.60;3.30;;;;;16.40;98737.00;;;;5070151;28;20193;-72
2021/10/19 11:31:12;;;;;;;3.73;3.43;;;;;16.30;98726.00;;;;5069802;28;20184;-73
2021/10/19 11:33:42;;;;;;;3.67;3.37;;;;;16.30;98739.00;;;;5068906;28;20677;-73
2021/10/19 11:36:09;;;;;;;3.67;3.37;;;;;16.30;98721.00;;;;5068975;28;20195;-73
2021/10/19 11:38:44;;;;;;;3.83;3.37;;;;;16.20;98726.00;;;;5068812;28;20185;-73
2021/10/19 11:41:24;;;;;;;3.77;3.47;;;;;16.20;98725.00;;;;5068337;28;20194;-73
2021/10/19 11:43:54;;;;;;;3.67;3.37;;;;;16.30;98725.00;;;;5052114;28;20186;-73
2021/10/19 11:46:23;;;;;;;3.60;3.30;;;;;16.20;98726.00;;;;5068497;28;20217;-74
2021/10/19 11:48:52;;;;;;;3.80;3.50;;;;;16.20;98725.00;;;;5069723;28;20679;-73
2021/10/19 11:51:21;;;;;;;3.43;3.23;;;;;16.20;98725.00;;;;5069439;28;20203;-74
2021/10/19 11:53:48;;;;;;;3.77;3.47;;;;;16.20;98721.00;;;;5068448;28;20660;-74
2021/10/19 11:56:17;;;;;;;4.30;3.40;;;;;16.20;98718.00;;;;5050008;28;20211;-73
2021/10/19 11:58:51;;;;;;;3.40;3.10;;;;;16.20;98722.00;;;;5049665;28;20564;-74
2021/10/19 12:01:19;;;;;;;3.60;3.30;;;;;16.20;98714.00;;;;5048953;28;20187;-74
2021/10/19 12:03:56;;;;;;;3.83;3.53;;;;;16.20;98726.00;;;;5048532;28;20208;-74
2021/10/19 12:06:24;;;;;;;3.40;3.20;;;;;16.20;98712.00;;;;5048206;28;20261;-74
2021/10/19 12:08:51;;;;;;;3.10;2.90;;;;;16.10;98712.00;;;;5049532;28;20650;-74
2021/10/19 12:11:22;;;;;;;3.43;3.23;;;;;16.20;98713.00;;;;5049076;28;20668;-74
2021/10/19 12:13:59;;;;;;;3.90;3.53;;;;;16.10;98717.00;;;;5049446;28;20583;-73
2021/10/19 12:16:30;;;;;;;3.33;3.03;;;;;16.10;98708.00;;;;5049817;28;20250;-75
2021/10/19 12:18:59;;;;;;;3.00;2.80;;;;;16.10;98701.00;;;;5049388;28;20676;-75
2021/10/19 12:21:27;;;;;;;2.93;2.73;;;;;16.10;98699.00;;;;5049081;28;20231;-75
2021/10/19 12:24:00;;;;;;;3.13;2.93;;;;;16.10;98694.00;;;;5047942;28;20730;-72
2021/10/19 12:26:29;;;;;;;4.40;3.30;;;;;16.10;98689.00;;;;5057151;28;20727;-75
2021/10/19 12:29:00;;;;;;;3.37;3.10;;;;;16.20;98697.00;;;;5067899;28;20196;-74
2021/10/19 12:31:27;;;;;;;3.47;3.27;;;;;16.10;98689.00;;;;5069240;28;20185;-74
2021/10/19 12:34:00;;;;;;;3.47;3.27;;;;;16.10;98685.00;;;;5062484;28;20184;-74
2021/10/19 12:36:30;;;;;;;3.30;3.10;;;;;16.10;98676.00;;;;5054643;28;20238;-74
2021/10/19 12:38:59;;;;;;;2.93;2.73;;;;;16.10;98672.00;;;;5055685;28;20685;-73
2021/10/19 12:41:27;;;;;;;3.63;3.33;;;;;16.10;98666.00;;;;5054401;28;20200;-73
2021/10/19 12:43:54;;;;;;;3.23;2.93;;;;;16.10;98667.00;;;;5055100;28;20212;-74
2021/10/19 12:46:22;;;;;;;3.33;3.13;;;;;16.10;98656.00;;;;5055499;28;20587;-74
2021/10/19 12:48:51;;;;;;;2.93;2.73;;;;;16.10;98664.00;;;;5054156;28;20229;-74
2021/10/19 12:51:20;;;;;;;3.33;3.03;;;;;16.00;98656.00;;;;5054178;28;20188;-73
2021/10/19 12:53:49;;;;;;;3.60;3.30;;;;;16.00;98652.00;;;;5054930;28;20185;-73
2021/10/19 12:56:20;;;;;;;3.43;3.13;;;;;16.00;98643.00;;;;5055302;28;20266;-74
2021/10/19 12:58:47;;;;;;;3.70;3.40;;;;;16.00;98644.00;;;;5053936;28;20200;-73
2021/10/19 13:01:14;;;;;;;3.10;2.90;;;;;16.00;98637.00;;;;5054042;28;20193;-73
2021/10/19 13:03:41;;;;;;;3.63;3.33;;;;;16.00;98634.00;;;;5055030;28;20212;-74
2021/10/19 13:06:08;;;;;;;3.33;3.03;;;;;16.00;98637.00;;;;5056106;28;20192;-71
2021/10/19 13:08:37;;;;;;;2.97;2.77;;;;;16.00;98626.00;;;;5055527;28;20188;-73
2021/10/19 13:11:04;;;;;;;2.80;2.60;;;;;16.00;98629.00;;;;5053963;28;20279;-74
2021/10/19 13:13:31;;;;;;;3.20;3.00;;;;;16.00;98631.00;;;;5054740;28;20195;-73
2021/10/19 13:15:58;;;;;;;2.97;2.77;;;;;16.00;98627.00;;;;5054736;28;20185;-72
2021/10/19 13:18:26;;;;;;;3.33;3.13;;;;;16.00;98626.00;;;;5055363;28;20238;-73
2021/10/19 13:20:53;;;;;;;3.20;3.00;;;;;16.00;98625.00;;;;5053626;28;20643;-73
2021/10/19 13:23:20;;;;;;;2.93;2.73;;;;;16.00;98631.00;;;;5054347;28;20212;-74
2021/10/19 13:25:47;;;;;;;3.23;3.03;;;;;16.00;98632.00;;;;5054718;28;20196;-73
2021/10/19 13:28:17;;;;;;;3.03;2.83;;;;;16.00;98632.00;;;;5053465;28;20277;-73
2021/10/19 13:30:45;;;;;;;3.37;3.07;;;;;16.10;98632.00;;;;5054462;28;20196;-75
2021/10/19 13:33:13;;;;;;;3.47;3.17;;;;;16.20;98628.00;;;;5048667;28;20192;-74
2021/10/19 13:35:40;;;;;;;3.10;2.90;;;;;16.30;98619.00;;;;4850998;28;20219;-72
2021/10/19 13:38:07;;;;;;;3.05;2.85;;;;;16.40;98627.00;;;;465586;28;10001457;-73
2021/10/19 13:40:33;;;;;;;2.97;2.77;;;;;16.50;98621.00;;;;5088729;28;20202;-73
2021/10/19 13:43:02;;;;;;;3.00;2.80;;;;;16.60;98629.00;;;;5094415;28;20200;-72